Time;durP1;ratioP1;P1;durP2;ratioP2;P2;SDS_P1;SDS_P2;PMS_P1;PMS_P2;Temp;Humidity;BMP_temperature;BMP_pressure;BME280_temperature;BME280_humidity;BME280_pressure;Samples;Min_cycle;Max_cycle;Signal;HPM_P1;HPM_P2
2022/01/08 00:01:13;;;;;;;32.35;22.75;;;;;;;;;;4949808;28;20419;-90
2022/01/08 00:03:41;;;;;;;31.42;22.45;;;;;;;;;;4949136;28;20423;-91
2022/01/08 00:06:11;;;;;;;33.75;24.02;;;;;;;;;;4949395;28;20416;-91
2022/01/08 00:08:38;;;;;;;33.95;23.70;;;;;;;;;;4949676;28;20681;-92
2022/01/08 00:11:07;;;;;;;32.85;22.90;;;;;;;;;;4946873;28;20471;-91
2022/01/08 00:13:35;;;;;;;31.45;22.05;;;;;;;;;;4949331;28;20439;-91
2022/01/08 00:16:02;;;;;;;33.28;22.92;;;;;;;;;;4949184;28;20424;-90
2022/01/08 00:18:29;;;;;;;30.70;20.92;;;;;;;;;;4948657;28;20424;-91
2022/01/08 00:20:57;;;;;;;28.13;21.00;;;;;;;;;;4949594;28;20821;-91
2022/01/08 00:23:24;;;;;;;27.77;20.45;;;;;;;;;;4947209;28;20814;-91
2022/01/08 00:25:51;;;;;;;29.58;20.13;;;;;;;;;;4942331;29;20435;-92
2022/01/08 00:28:18;;;;;;;26.25;19.52;;;;;;;;;;4949235;28;20413;-91
2022/01/08 00:30:47;;;;;;;27.17;19.87;;;;;;;;;;4949882;28;20515;-91
2022/01/08 00:33:14;;;;;;;29.98;20.48;;;;;;;;;;4948676;28;20742;-91
2022/01/08 00:35:41;;;;;;;28.23;20.20;;;;;;;;;;4949280;28;20416;-92
2022/01/08 00:38:10;;;;;;;29.05;20.90;;;;;;;;;;4949447;28;20428;-92
2022/01/08 00:40:36;;;;;;;30.10;20.60;;;;;;;;;;4948291;28;20417;-90
2022/01/08 00:43:03;;;;;;;25.40;18.08;;;;;;;;;;4949102;28;20421;-92
2022/01/08 00:45:30;;;;;;;23.88;17.27;;;;;;;;;;4949011;28;20415;-91
2022/01/08 00:47:57;;;;;;;26.67;17.85;;;;;;;;;;4949467;28;20412;-91
2022/01/08 00:50:24;;;;;;;26.13;17.15;;;;;;;;;;4948734;28;20423;-91
2022/01/08 00:52:51;;;;;;;25.17;16.70;;;;;;;;;;4949147;28;20813;-91
2022/01/08 00:55:20;;;;;;;24.95;17.92;;;;;;;;;;4945212;29;20439;-91
2022/01/08 00:57:47;;;;;;;25.73;17.38;;;;;;;;;;4948454;28;20420;-92
2022/01/08 01:00:14;;;;;;;24.77;17.35;;;;;;;;;;4948624;28;20416;-92
2022/01/08 01:02:42;;;;;;;26.93;18.87;;;;;;;;;;4948824;28;20770;-92
2022/01/08 01:05:10;;;;;;;28.52;19.05;;;;;;;;;;4948861;28;20423;-91
2022/01/08 01:07:37;;;;;;;27.27;18.70;;;;;;;;;;4949170;28;20416;-90
2022/01/08 01:10:06;;;;;;;28.00;19.20;;;;;;;;;;4948491;28;20416;-92
2022/01/08 01:12:34;;;;;;;27.87;19.17;;;;;;;;;;4948632;28;20416;-90
2022/01/08 01:15:01;;;;;;;28.58;19.73;;;;;;;;;;4944747;29;20435;-91
2022/01/08 01:17:28;;;;;;;29.05;19.70;;;;;;;;;;4948634;29;20423;-91
2022/01/08 01:19:56;;;;;;;27.48;19.30;;;;;;;;;;4951980;28;20415;-92
2022/01/08 01:22:28;;;;;;;28.98;19.52;;;;;;;;;;4948762;28;20427;-91
2022/01/08 01:25:02;;;;;;;26.25;19.05;;;;;;;;;;4944654;28;20416;-91
2022/01/08 01:27:56;;;;;;;28.40;19.73;;;;;;;;;;4948465;28;20928;-92
2022/01/08 01:30:48;;;;;;;28.95;20.40;;;;;;;;;;4951914;28;20503;-91
2022/01/08 01:41:41;;;;;;;29.03;19.57;;;;;;;;;;4948563;29;20395;-90
2022/01/08 01:47:01;;;;;;;27.40;19.17;;;;;;;;;;4951950;29;20411;-91
2022/01/08 01:49:29;;;;;;;28.30;20.33;;;;;;;;;;4951910;29;20428;-91
2022/01/08 01:51:56;;;;;;;28.75;19.33;;;;;;;;;;4951843;29;20481;-91
2022/01/08 01:54:23;;;;;;;29.77;19.50;;;;;;;;;;4948295;28;20473;-90
2022/01/08 01:56:50;;;;;;;31.38;20.08;;;;;;;;;;4950832;29;20439;-90
2022/01/08 01:59:17;;;;;;;27.40;19.52;;;;;;;;;;4951301;28;20871;-91
2022/01/08 02:01:44;;;;;;;29.10;20.17;;;;;;;;;;4951695;28;20419;-91
2022/01/08 02:04:12;;;;;;;28.55;20.13;;;;;;;;;;4951613;28;20412;-90
2022/01/08 02:06:40;;;;;;;29.70;20.58;;;;;;;;;;4951724;28;20758;-91
2022/01/08 02:09:07;;;;;;;29.30;20.98;;;;;;;;;;4950694;28;20416;-91
2022/01/08 02:11:34;;;;;;;29.00;19.75;;;;;;;;;;4948917;28;20412;-91
2022/01/08 02:14:04;;;;;;;29.45;20.25;;;;;;;;;;4948453;29;20479;-91
2022/01/08 02:16:31;;;;;;;30.05;21.48;;;;;;;;;;4947971;29;20431;-90
2022/01/08 02:18:58;;;;;;;37.75;23.27;;;;;;;;;;4950982;28;20424;-91
2022/01/08 02:21:26;;;;;;;33.42;22.23;;;;;;;;;;4949220;28;20424;-90
2022/01/08 02:23:53;;;;;;;37.00;23.73;;;;;;;;;;4949286;28;20419;-89
2022/01/08 02:26:20;;;;;;;41.30;25.95;;;;;;;;;;4947832;28;20416;-92
2022/01/08 02:28:47;;;;;;;35.50;23.45;;;;;;;;;;4951080;28;20817;-91
2022/01/08 02:31:24;;;;;;;34.45;23.15;;;;;;;;;;4951348;28;20409;-91
2022/01/08 02:33:52;;;;;;;33.03;22.00;;;;;;;;;;4951474;28;20421;-91
2022/01/08 02:36:19;;;;;;;34.10;22.03;;;;;;;;;;4950903;28;20423;-91
2022/01/08 02:38:48;;;;;;;28.88;20.00;;;;;;;;;;4950837;28;20865;-92
2022/01/08 02:41:15;;;;;;;29.40;20.10;;;;;;;;;;4946100;28;20416;-92
2022/01/08 02:43:45;;;;;;;28.88;19.88;;;;;;;;;;4951975;28;20423;-91
2022/01/08 02:46:13;;;;;;;29.07;19.27;;;;;;;;;;4951126;28;20508;-91
2022/01/08 02:48:40;;;;;;;25.98;18.83;;;;;;;;;;4950872;28;20412;-91
2022/01/08 02:51:07;;;;;;;26.85;19.15;;;;;;;;;;4951133;28;20746;-92
2022/01/08 02:53:34;;;;;;;26.70;18.85;;;;;;;;;;4950330;28;20651;-91
2022/01/08 02:56:02;;;;;;;27.17;19.60;;;;;;;;;;4948415;29;20785;-92
2022/01/08 02:58:29;;;;;;;28.90;19.60;;;;;;;;;;4958136;28;20420;-91
2022/01/08 03:00:56;;;;;;;27.65;19.08;;;;;;;;;;4957413;29;20416;-92
2022/01/08 03:03:23;;;;;;;26.05;18.85;;;;;;;;;;4957829;29;20420;-91
2022/01/08 03:05:50;;;;;;;26.70;18.08;;;;;;;;;;4957557;28;20431;-91
2022/01/08 03:08:17;;;;;;;26.80;19.25;;;;;;;;;;4957835;28;20412;-93
2022/01/08 03:10:44;;;;;;;26.08;18.80;;;;;;;;;;4957343;28;20419;-91
2022/01/08 03:13:13;;;;;;;27.05;18.58;;;;;;;;;;4957632;28;20466;-92
2022/01/08 03:15:41;;;;;;;26.25;18.85;;;;;;;;;;4955095;28;20424;-91
2022/01/08 03:18:08;;;;;;;27.83;18.85;;;;;;;;;;4955689;28;20416;-91
2022/01/08 03:20:44;;;;;;;27.50;19.15;;;;;;;;;;4955675;28;20424;-91
2022/01/08 03:23:15;;;;;;;27.98;20.08;;;;;;;;;;4956577;28;21038;-90
2022/01/08 03:25:42;;;;;;;32.55;21.33;;;;;;;;;;4959839;28;20858;-90
2022/01/08 03:28:10;;;;;;;29.45;20.20;;;;;;;;;;4963347;28;20411;-90
2022/01/08 03:30:39;;;;;;;30.13;20.42;;;;;;;;;;4961924;28;20447;-90
2022/01/08 03:33:06;;;;;;;30.27;20.55;;;;;;;;;;4962334;28;20789;-91
2022/01/08 03:35:34;;;;;;;28.88;19.60;;;;;;;;;;4960244;28;20428;-91
2022/01/08 03:38:01;;;;;;;28.77;19.92;;;;;;;;;;4956895;28;20913;-91
2022/01/08 03:40:28;;;;;;;28.50;19.10;;;;;;;;;;4956535;28;20426;-92
2022/01/08 03:42:55;;;;;;;28.07;19.97;;;;;;;;;;4956753;28;20408;-91
2022/01/08 03:45:22;;;;;;;27.95;19.80;;;;;;;;;;4957855;28;20416;-91
2022/01/08 03:48:06;;;;;;;28.92;19.48;;;;;;;;;;4955755;28;20431;-91
2022/01/08 03:50:33;;;;;;;30.17;20.13;;;;;;;;;;4956615;28;20423;-91
2022/01/08 03:53:00;;;;;;;27.75;20.10;;;;;;;;;;4951552;28;20428;-90
2022/01/08 03:55:27;;;;;;;27.50;19.13;;;;;;;;;;4952678;28;20892;-90
2022/01/08 03:57:54;;;;;;;30.33;19.88;;;;;;;;;;4957210;28;20471;-91
2022/01/08 04:00:21;;;;;;;26.98;19.20;;;;;;;;;;4956088;28;20428;-92
2022/01/08 04:02:48;;;;;;;29.40;19.90;;;;;;;;;;4957948;28;20427;-91
2022/01/08 04:05:16;;;;;;;27.35;19.27;;;;;;;;;;4955354;28;20479;-91
2022/01/08 04:07:43;;;;;;;25.85;18.52;;;;;;;;;;4956426;28;20423;-90
2022/01/08 04:10:10;;;;;;;28.15;19.80;;;;;;;;;;4956476;28;20412;-91
2022/01/08 04:12:42;;;;;;;28.75;19.35;;;;;;;;;;4957652;28;20715;-91
2022/01/08 04:15:30;;;;;;;27.08;19.23;;;;;;;;;;4957388;28;20431;-91
2022/01/08 04:17:57;;;;;;;28.08;19.50;;;;;;;;;;4949978;29;20404;-91
2022/01/08 04:20:26;;;;;;;27.15;19.67;;;;;;;;;;4951576;28;20423;-92
2022/01/08 04:22:53;;;;;;;28.02;18.52;;;;;;;;;;4948074;28;20423;-91
2022/01/08 04:25:24;;;;;;;27.35;19.60;;;;;;;;;;4950282;28;22306;-91
2022/01/08 04:27:51;;;;;;;26.45;18.73;;;;;;;;;;4952964;28;20416;-92
2022/01/08 04:30:19;;;;;;;27.17;19.10;;;;;;;;;;4971896;28;20400;-91
2022/01/08 04:32:46;;;;;;;25.42;18.50;;;;;;;;;;4962699;28;20408;-91
2022/01/08 04:35:13;;;;;;;26.23;19.00;;;;;;;;;;4950093;28;20769;-91
2022/01/08 04:37:41;;;;;;;25.07;18.50;;;;;;;;;;4950188;28;20568;-91
2022/01/08 04:40:09;;;;;;;27.13;19.85;;;;;;;;;;4948186;28;20424;-90
2022/01/08 04:42:36;;;;;;;26.83;19.23;;;;;;;;;;4949198;28;20412;-91
2022/01/08 04:45:03;;;;;;;27.15;19.50;;;;;;;;;;4949496;28;20427;-91
2022/01/08 04:47:30;;;;;;;26.25;19.00;;;;;;;;;;4949282;28;20420;-91
2022/01/08 04:49:57;;;;;;;27.08;18.70;;;;;;;;;;4945974;29;20412;-91
2022/01/08 04:52:24;;;;;;;26.47;19.70;;;;;;;;;;4945679;28;20462;-91
2022/01/08 04:54:53;;;;;;;26.75;18.65;;;;;;;;;;4946091;28;20432;-91
2022/01/08 04:57:20;;;;;;;27.83;18.97;;;;;;;;;;4949691;28;20806;-90
2022/01/08 04:59:47;;;;;;;25.90;18.45;;;;;;;;;;4949456;28;20821;-91
2022/01/08 05:02:14;;;;;;;29.33;18.75;;;;;;;;;;4948889;28;20412;-91
2022/01/08 05:04:41;;;;;;;25.75;18.20;;;;;;;;;;4959491;28;20495;-91
2022/01/08 05:07:08;;;;;;;27.92;19.63;;;;;;;;;;4953214;28;20427;-91
2022/01/08 05:09:35;;;;;;;27.45;19.20;;;;;;;;;;4950113;28;20420;-91
2022/01/08 05:12:04;;;;;;;27.00;19.52;;;;;;;;;;4952883;28;20439;-92
2022/01/08 05:14:31;;;;;;;25.92;19.33;;;;;;;;;;4952009;28;20419;-90
2022/01/08 05:17:00;;;;;;;31.23;23.80;;;;;;;;;;4952873;28;20412;-91
2022/01/08 05:19:38;;;;;;;29.83;22.13;;;;;;;;;;4951307;29;20972;-91
2022/01/08 05:22:07;;;;;;;27.92;19.95;;;;;;;;;;4949394;29;20412;-91
2022/01/08 05:24:34;;;;;;;28.45;19.42;;;;;;;;;;4946482;29;20448;-91
2022/01/08 05:27:06;;;;;;;27.52;19.08;;;;;;;;;;4952311;28;20427;-91
2022/01/08 05:29:33;;;;;;;26.90;19.13;;;;;;;;;;4949290;29;20420;-91
2022/01/08 05:32:00;;;;;;;27.10;19.25;;;;;;;;;;4953108;28;20423;-92
2022/01/08 05:34:27;;;;;;;27.95;19.52;;;;;;;;;;4951291;29;20422;-91
2022/01/08 05:36:54;;;;;;;28.40;18.75;;;;;;;;;;4952405;28;20796;-91
2022/01/08 05:39:20;;;;;;;28.75;19.02;;;;;;;;;;4949825;28;20424;-91
2022/01/08 05:41:47;;;;;;;27.38;19.00;;;;;;;;;;4951915;28;20411;-92
2022/01/08 05:44:16;;;;;;;27.00;19.00;;;;;;;;;;4952427;28;20420;-91
2022/01/08 05:46:46;;;;;;;26.48;18.33;;;;;;;;;;4952019;28;20434;-91
2022/01/08 05:49:15;;;;;;;25.98;18.65;;;;;;;;;;4951941;28;20419;-91
2022/01/08 05:51:42;;;;;;;27.00;19.20;;;;;;;;;;4951131;28;20456;-92
2022/01/08 05:54:09;;;;;;;31.55;18.75;;;;;;;;;;4951350;28;20427;-92
2022/01/08 05:56:36;;;;;;;26.15;18.35;;;;;;;;;;4949101;29;20420;-91
2022/01/08 05:59:03;;;;;;;26.58;18.08;;;;;;;;;;4951818;28;20427;-91
2022/01/08 06:01:33;;;;;;;26.80;18.58;;;;;;;;;;4951976;28;20427;-91
2022/01/08 06:04:00;;;;;;;26.23;18.65;;;;;;;;;;4952067;28;20411;-91
2022/01/08 06:06:27;;;;;;;24.63;18.45;;;;;;;;;;4950429;29;20435;-92
2022/01/08 06:08:54;;;;;;;27.08;18.35;;;;;;;;;;4950518;28;20436;-91
2022/01/08 06:11:21;;;;;;;27.92;18.83;;;;;;;;;;4949193;28;20412;-91
2022/01/08 06:13:48;;;;;;;28.30;18.83;;;;;;;;;;4951413;28;20415;-91
2022/01/08 06:16:16;;;;;;;27.23;19.95;;;;;;;;;;4950875;28;20413;-92
2022/01/08 06:18:44;;;;;;;25.40;18.50;;;;;;;;;;4950860;28;20423;-91
2022/01/08 06:21:11;;;;;;;27.25;18.33;;;;;;;;;;4951575;28;20743;-92
2022/01/08 06:23:38;;;;;;;28.58;19.80;;;;;;;;;;4951442;28;20419;-92
2022/01/08 06:26:06;;;;;;;27.80;19.80;;;;;;;;;;4951567;28;20412;-91
2022/01/08 06:28:34;;;;;;;27.67;19.40;;;;;;;;;;4953372;28;20431;-91
2022/01/08 06:31:01;;;;;;;30.23;19.88;;;;;;;;;;4951609;28;20412;-91
2022/01/08 06:33:27;;;;;;;28.63;19.08;;;;;;;;;;4947804;29;20416;-92
2022/01/08 06:35:56;;;;;;;28.45;19.50;;;;;;;;;;4950052;29;20423;-92
2022/01/08 06:38:23;;;;;;;30.20;19.38;;;;;;;;;;4951187;28;20412;-91
2022/01/08 06:40:50;;;;;;;28.15;19.35;;;;;;;;;;4948133;28;20996;-91
2022/01/08 06:43:17;;;;;;;29.50;19.17;;;;;;;;;;4951159;28;20508;-90
2022/01/08 06:45:44;;;;;;;29.25;19.45;;;;;;;;;;4950843;28;20481;-91
2022/01/08 06:48:11;;;;;;;29.75;19.42;;;;;;;;;;4951184;28;20423;-90
2022/01/08 06:50:38;;;;;;;29.10;18.65;;;;;;;;;;4950946;28;20858;-91
2022/01/08 06:53:06;;;;;;;26.55;19.15;;;;;;;;;;4950919;28;20423;-89
2022/01/08 06:55:33;;;;;;;28.42;19.23;;;;;;;;;;4948390;28;20431;-91
2022/01/08 06:58:00;;;;;;;29.43;19.47;;;;;;;;;;4951274;28;20500;-91
2022/01/08 07:00:26;;;;;;;28.42;19.70;;;;;;;;;;4950277;28;20424;-91
2022/01/08 07:02:53;;;;;;;27.90;18.90;;;;;;;;;;4951214;28;20408;-90
2022/01/08 07:05:20;;;;;;;29.55;19.35;;;;;;;;;;4950648;28;20798;-91
2022/01/08 07:07:47;;;;;;;30.73;20.63;;;;;;;;;;4950850;28;20428;-91
2022/01/08 07:10:16;;;;;;;37.60;22.25;;;;;;;;;;4949676;28;20428;-91
2022/01/08 07:12:42;;;;;;;35.97;21.85;;;;;;;;;;4950609;28;20416;-91
2022/01/08 07:15:12;;;;;;;34.38;21.10;;;;;;;;;;4950468;28;20420;-91
2022/01/08 07:17:40;;;;;;;29.88;19.75;;;;;;;;;;4948278;29;20427;-91
2022/01/08 07:20:08;;;;;;;31.73;19.52;;;;;;;;;;4951424;29;20428;-89
2022/01/08 07:22:36;;;;;;;30.23;19.30;;;;;;;;;;4971335;28;20408;-90
2022/01/08 07:25:03;;;;;;;29.88;19.27;;;;;;;;;;4963266;28;20420;-92
2022/01/08 07:27:32;;;;;;;30.25;19.30;;;;;;;;;;4949835;28;20837;-89
2022/01/08 07:29:59;;;;;;;27.33;18.70;;;;;;;;;;4949805;29;20440;-92
2022/01/08 07:32:27;;;;;;;29.08;19.45;;;;;;;;;;4949990;28;20416;-91
2022/01/08 07:34:54;;;;;;;30.30;19.10;;;;;;;;;;4950495;28;20836;-91
2022/01/08 07:37:21;;;;;;;27.95;18.63;;;;;;;;;;4950287;28;20419;-91
2022/01/08 07:39:48;;;;;;;28.23;18.90;;;;;;;;;;4948799;28;20447;-91
2022/01/08 07:42:15;;;;;;;30.35;18.80;;;;;;;;;;4950021;28;20420;-91
2022/01/08 07:44:44;;;;;;;28.88;19.33;;;;;;;;;;4949447;28;20420;-91
2022/01/08 07:47:11;;;;;;;27.25;18.90;;;;;;;;;;4950220;28;20559;-91
2022/01/08 07:49:38;;;;;;;29.30;21.13;;;;;;;;;;4946971;29;20412;-92
2022/01/08 07:52:06;;;;;;;30.00;21.08;;;;;;;;;;4949774;28;20511;-90
2022/01/08 07:54:33;;;;;;;36.60;24.73;;;;;;;;;;4948469;28;20502;-91
2022/01/08 07:57:00;;;;;;;38.17;27.27;;;;;;;;;;4950231;28;20996;-91
2022/01/08 07:59:27;;;;;;;37.50;23.92;;;;;;;;;;4947842;29;20412;-91
2022/01/08 08:01:56;;;;;;;54.47;35.05;;;;;;;;;;4949790;28;20463;-91
2022/01/08 08:04:23;;;;;;;34.42;24.83;;;;;;;;;;4949800;28;20427;-91
2022/01/08 08:06:50;;;;;;;32.85;23.08;;;;;;;;;;4949384;28;20412;-91
2022/01/08 08:09:17;;;;;;;32.28;21.67;;;;;;;;;;4948914;28;20419;-92
2022/01/08 08:11:44;;;;;;;31.73;21.70;;;;;;;;;;4947599;29;20416;-91
2022/01/08 08:14:11;;;;;;;28.08;20.27;;;;;;;;;;4949279;28;20415;-91
2022/01/08 08:16:38;;;;;;;29.55;19.95;;;;;;;;;;4945700;29;20429;-90
2022/01/08 08:19:07;;;;;;;28.20;19.08;;;;;;;;;;4949161;28;20420;-91
2022/01/08 08:21:34;;;;;;;28.15;18.48;;;;;;;;;;4948638;28;20458;-91
2022/01/08 08:24:03;;;;;;;26.05;18.58;;;;;;;;;;4947891;28;20419;-92
2022/01/08 08:26:30;;;;;;;26.60;18.02;;;;;;;;;;4948314;29;20495;-92
2022/01/08 08:28:57;;;;;;;30.45;19.10;;;;;;;;;;4947947;29;20420;-92
2022/01/08 08:31:25;;;;;;;26.50;18.50;;;;;;;;;;4949144;28;20419;-91
2022/01/08 08:33:52;;;;;;;27.73;18.33;;;;;;;;;;4949130;28;20424;-92
2022/01/08 08:36:20;;;;;;;28.35;18.50;;;;;;;;;;4949478;28;20783;-92
2022/01/08 08:38:47;;;;;;;24.63;17.93;;;;;;;;;;4948763;28;20469;-92
2022/01/08 08:41:15;;;;;;;22.92;17.10;;;;;;;;;;4948236;29;20427;-92
2022/01/08 08:43:42;;;;;;;24.43;18.37;;;;;;;;;;4948860;28;20496;-92
2022/01/08 08:46:09;;;;;;;26.75;20.17;;;;;;;;;;4947033;29;20427;-91
2022/01/08 08:48:36;;;;;;;26.20;17.55;;;;;;;;;;4949472;28;20893;-91
2022/01/08 08:51:03;;;;;;;24.55;17.65;;;;;;;;;;4949272;28;20417;-92
2022/01/08 08:53:31;;;;;;;26.30;18.65;;;;;;;;;;4947115;28;20424;-91
2022/01/08 08:55:58;;;;;;;24.95;18.17;;;;;;;;;;4948609;29;20420;-91
2022/01/08 08:58:25;;;;;;;26.40;17.92;;;;;;;;;;4949244;28;20424;-92
2022/01/08 09:00:52;;;;;;;23.70;17.73;;;;;;;;;;4949584;28;20436;-92
2022/01/08 09:03:20;;;;;;;25.38;17.60;;;;;;;;;;4952390;28;20416;-91
2022/01/08 09:05:47;;;;;;;26.75;18.10;;;;;;;;;;4950654;28;20424;-91
2022/01/08 09:08:14;;;;;;;26.35;17.38;;;;;;;;;;4949472;28;20446;-92
2022/01/08 09:10:43;;;;;;;23.63;17.33;;;;;;;;;;4947063;28;20727;-92
2022/01/08 09:13:10;;;;;;;24.38;16.77;;;;;;;;;;4947232;29;20419;-92
2022/01/08 09:15:41;;;;;;;23.40;17.10;;;;;;;;;;4948322;28;20428;-92
2022/01/08 09:18:09;;;;;;;26.63;17.33;;;;;;;;;;4949503;28;20404;-92
2022/01/08 09:20:37;;;;;;;21.20;15.05;;;;;;;;;;4948073;28;20923;-92
2022/01/08 09:23:05;;;;;;;17.80;12.80;;;;;;;;;;4948710;28;20800;-93
2022/01/08 09:25:32;;;;;;;16.90;12.77;;;;;;;;;;4948630;28;20446;-92
2022/01/08 09:28:01;;;;;;;17.50;13.68;;;;;;;;;;4948944;28;20411;-91
2022/01/08 09:30:28;;;;;;;16.70;13.17;;;;;;;;;;4948577;28;20889;-92
2022/01/08 09:32:56;;;;;;;19.40;14.20;;;;;;;;;;4948984;28;20427;-92
2022/01/08 09:35:25;;;;;;;19.40;13.55;;;;;;;;;;4948313;28;20427;-94
2022/01/08 09:37:53;;;;;;;17.85;13.68;;;;;;;;;;4948575;28;20424;-92
2022/01/08 09:40:22;;;;;;;20.20;14.40;;;;;;;;;;4944979;28;20670;-92
2022/01/08 09:42:51;;;;;;;18.48;13.60;;;;;;;;;;4949009;28;20467;-92
2022/01/08 09:45:19;;;;;;;18.13;13.50;;;;;;;;;;4949140;28;20416;-91
2022/01/08 09:47:46;;;;;;;21.13;14.85;;;;;;;;;;4948914;28;20422;-92
2022/01/08 09:50:13;;;;;;;20.92;13.95;;;;;;;;;;4950726;28;20412;-92
2022/01/08 09:52:40;;;;;;;20.35;15.20;;;;;;;;;;4951032;29;20424;-92
2022/01/08 09:55:09;;;;;;;20.70;14.05;;;;;;;;;;4948138;28;20764;-92
2022/01/08 09:57:36;;;;;;;18.77;14.10;;;;;;;;;;4952119;28;20412;-92
2022/01/08 10:00:11;;;;;;;18.23;14.03;;;;;;;;;;4952405;28;20415;-92
2022/01/08 10:02:39;;;;;;;17.80;13.02;;;;;;;;;;4952333;28;20448;-92
2022/01/08 10:05:10;;;;;;;16.15;11.82;;;;;;;;;;4952347;28;20423;-92
2022/01/08 10:07:37;;;;;;;16.80;12.50;;;;;;;;;;4952563;28;20439;-92
2022/01/08 10:10:10;;;;;;;15.95;11.88;;;;;;;;;;4950781;28;20423;-92
2022/01/08 10:12:44;;;;;;;13.07;9.88;;;;;;;;;;4951880;28;20471;-93
2022/01/08 10:17:59;;;;;;;14.15;10.50;;;;;;;;;;4952723;29;21009;-92
2022/01/08 10:20:35;;;;;;;12.90;9.27;;;;;;;;;;4955161;28;20750;-93
2022/01/08 10:23:14;;;;;;;12.60;9.52;;;;;;;;;;4955060;29;20420;-93
2022/01/08 10:25:43;;;;;;;12.88;10.55;;;;;;;;;;4970587;28;20416;-93
2022/01/08 10:28:10;;;;;;;12.85;10.38;;;;;;;;;;4969957;28;20423;-91
2022/01/08 10:30:37;;;;;;;14.90;10.27;;;;;;;;;;4952155;28;20416;-92
2022/01/08 10:33:06;;;;;;;13.38;9.65;;;;;;;;;;4952433;28;20416;-89
2022/01/08 10:35:53;;;;;;;14.00;9.90;;;;;;;;;;4951674;28;20431;-91
2022/01/08 10:38:20;;;;;;;25.35;14.75;;;;;;;;;;4951056;29;20412;-91
2022/01/08 10:40:47;;;;;;;14.82;10.23;;;;;;;;;;4950102;28;20420;-91
2022/01/08 10:43:25;;;;;;;23.77;13.93;;;;;;;;;;4952069;28;20421;-92
2022/01/08 10:45:53;;;;;;;16.23;10.00;;;;;;;;;;4951311;29;20443;-91
2022/01/08 10:48:32;;;;;;;20.08;11.73;;;;;;;;;;4952415;28;20416;-92
2022/01/08 10:51:11;;;;;;;17.23;11.20;;;;;;;;;;4950914;29;20419;-91
2022/01/08 10:54:01;;;;;;;17.48;10.10;;;;;;;;;;4951032;29;20919;-91
2022/01/08 10:56:30;;;;;;;10.37;7.97;;;;;;;;;;4950796;28;20424;-92
2022/01/08 10:59:10;;;;;;;32.28;18.00;;;;;;;;;;4950337;29;20423;-92
2022/01/08 11:01:45;;;;;;;11.60;8.55;;;;;;;;;;4949649;28;20920;-92
2022/01/08 11:04:15;;;;;;;13.48;9.63;;;;;;;;;;4949847;29;20467;-92
2022/01/08 11:06:54;;;;;;;25.00;15.77;;;;;;;;;;4947567;29;20420;-93
2022/01/08 11:09:21;;;;;;;9.95;7.82;;;;;;;;;;4946584;29;20408;-93
2022/01/08 11:11:50;;;;;;;17.13;10.77;;;;;;;;;;4950494;29;20431;-92
2022/01/08 11:14:47;;;;;;;14.85;9.70;;;;;;;;;;4951471;28;20428;-93
2022/01/08 11:17:17;;;;;;;14.60;10.45;;;;;;;;;;4951755;28;20436;-92
2022/01/08 11:19:48;;;;;;;16.90;11.52;;;;;;;;;;4949059;29;20420;-92
2022/01/08 11:22:17;;;;;;;14.48;9.98;;;;;;;;;;4950039;29;20797;-92
2022/01/08 11:24:56;;;;;;;24.25;15.98;;;;;;;;;;4949502;29;20420;-92
2022/01/08 11:27:26;;;;;;;13.63;10.45;;;;;;;;;;4950906;29;20427;-92
2022/01/08 11:30:08;;;;;;;12.98;10.13;;;;;;;;;;4951168;28;20782;-92
2022/01/08 11:32:36;;;;;;;25.17;16.60;;;;;;;;;;4950296;29;20428;-92
2022/01/08 11:35:07;;;;;;;14.63;10.65;;;;;;;;;;4951065;28;20412;-91
2022/01/08 11:37:34;;;;;;;13.82;11.18;;;;;;;;;;4950522;28;20896;-91
2022/01/08 11:40:05;;;;;;;14.88;10.88;;;;;;;;;;4947163;28;20424;-91
2022/01/08 11:42:34;;;;;;;14.50;11.57;;;;;;;;;;4951346;29;20455;-91
2022/01/08 11:45:04;;;;;;;13.48;11.35;;;;;;;;;;4951124;28;20900;-92
2022/01/08 11:47:31;;;;;;;16.00;12.35;;;;;;;;;;4948654;29;20423;-93
2022/01/08 11:50:01;;;;;;;17.58;13.25;;;;;;;;;;4948993;29;20419;-91
2022/01/08 11:52:29;;;;;;;17.90;13.13;;;;;;;;;;4947414;29;20447;-92
2022/01/08 11:54:56;;;;;;;16.20;12.45;;;;;;;;;;4946718;28;20430;-91
2022/01/08 11:57:25;;;;;;;15.70;11.50;;;;;;;;;;4950403;28;20416;-92
2022/01/08 11:59:58;;;;;;;15.88;11.48;;;;;;;;;;4951337;28;20416;-90
2022/01/08 12:02:44;;;;;;;15.55;11.18;;;;;;;;;;4950139;28;20431;-92
2022/01/08 12:05:14;;;;;;;15.30;10.20;;;;;;;;;;4950315;28;20420;-92
2022/01/08 12:07:47;;;;;;;15.05;10.20;;;;;;;;;;4949297;28;20752;-92
2022/01/08 12:10:20;;;;;;;12.93;10.40;;;;;;;;;;4946957;29;20424;-92
2022/01/08 12:12:54;;;;;;;13.00;10.13;;;;;;;;;;4948328;28;20427;-93
2022/01/08 12:15:48;;;;;;;12.80;9.37;;;;;;;;;;4948942;29;20454;-93
2022/01/08 12:18:18;;;;;;;10.98;8.35;;;;;;;;;;4946661;29;20412;-92
2022/01/08 12:20:47;;;;;;;10.38;8.32;;;;;;;;;;4948539;29;20419;-91
2022/01/08 12:23:27;;;;;;;11.32;9.00;;;;;;;;;;4945988;29;20424;-92
2022/01/08 12:25:54;;;;;;;11.20;8.63;;;;;;;;;;4949132;29;20443;-92
2022/01/08 12:28:42;;;;;;;12.68;9.05;;;;;;;;;;4949983;28;20419;-92
2022/01/08 12:31:31;;;;;;;11.25;9.15;;;;;;;;;;4950212;28;20412;-92
2022/01/08 12:34:46;;;;;;;12.30;9.77;;;;;;;;;;4948217;29;20435;-91
2022/01/08 12:37:14;;;;;;;11.10;9.13;;;;;;;;;;4949589;28;20657;-91
2022/01/08 12:39:57;;;;;;;11.60;8.45;;;;;;;;;;4947863;28;20438;-91
2022/01/08 12:42:39;;;;;;;9.32;8.10;;;;;;;;;;4948973;29;20424;-93
2022/01/08 12:45:11;;;;;;;9.95;8.02;;;;;;;;;;4948639;29;20416;-92
2022/01/08 12:47:50;;;;;;;10.25;7.93;;;;;;;;;;4949379;28;20419;-92
2022/01/08 12:50:19;;;;;;;10.90;7.55;;;;;;;;;;4949659;28;20416;-92
2022/01/08 12:53:22;;;;;;;10.23;7.97;;;;;;;;;;4946668;29;20431;-92
2022/01/08 12:56:10;;;;;;;11.32;8.18;;;;;;;;;;4946584;29;20415;-91
2022/01/08 12:58:43;;;;;;;9.73;7.50;;;;;;;;;;4948466;29;20431;-92
2022/01/08 13:01:12;;;;;;;11.10;7.50;;;;;;;;;;4949901;28;20800;-92
2022/01/08 13:03:41;;;;;;;11.23;8.40;;;;;;;;;;4949369;28;20424;-92
2022/01/08 13:06:22;;;;;;;9.83;7.67;;;;;;;;;;4949795;28;21023;-92
2022/01/08 13:08:50;;;;;;;10.30;7.70;;;;;;;;;;4947639;29;20426;-90
2022/01/08 13:11:21;;;;;;;10.55;7.82;;;;;;;;;;4949553;29;20507;-91
2022/01/08 13:13:49;;;;;;;11.70;7.80;;;;;;;;;;4948744;29;20427;-92
2022/01/08 13:16:18;;;;;;;11.18;7.22;;;;;;;;;;4949366;28;20424;-92
2022/01/08 13:18:49;;;;;;;10.02;7.28;;;;;;;;;;4949644;28;20426;-92
2022/01/08 13:21:17;;;;;;;9.38;7.35;;;;;;;;;;4948033;29;20513;-92
2022/01/08 13:23:45;;;;;;;9.55;7.55;;;;;;;;;;4946421;28;20904;-92
2022/01/08 13:26:12;;;;;;;9.43;7.00;;;;;;;;;;4950990;28;20419;-92
2022/01/08 13:28:42;;;;;;;9.68;8.00;;;;;;;;;;4953082;28;20426;-92
2022/01/08 13:31:09;;;;;;;10.15;7.70;;;;;;;;;;4953870;28;20799;-93
2022/01/08 13:33:36;;;;;;;10.95;8.30;;;;;;;;;;4952967;28;20431;-92
2022/01/08 13:36:06;;;;;;;10.32;7.97;;;;;;;;;;4953184;28;20784;-92
2022/01/08 13:38:34;;;;;;;10.77;7.87;;;;;;;;;;4952796;28;20420;-93
2022/01/08 13:41:10;;;;;;;8.65;7.50;;;;;;;;;;4951138;28;20429;-93
2022/01/08 13:43:58;;;;;;;9.48;7.45;;;;;;;;;;4951569;29;20420;-92
2022/01/08 13:46:27;;;;;;;8.43;7.43;;;;;;;;;;4952483;29;20494;-92
2022/01/08 13:48:55;;;;;;;9.93;7.82;;;;;;;;;;4952728;28;20425;-92
2022/01/08 13:51:24;;;;;;;8.68;7.75;;;;;;;;;;4953857;28;20483;-93
2022/01/08 13:54:00;;;;;;;9.65;7.50;;;;;;;;;;4957497;28;20424;-92
2022/01/08 13:56:28;;;;;;;9.43;7.70;;;;;;;;;;4955468;28;20425;-93
2022/01/08 13:59:06;;;;;;;9.57;7.70;;;;;;;;;;4973744;28;20400;-91
2022/01/08 14:01:46;;;;;;;9.15;7.40;;;;;;;;;;4972608;28;20414;-93
2022/01/08 14:04:15;;;;;;;9.30;7.40;;;;;;;;;;4957526;28;20511;-93
2022/01/08 14:06:45;;;;;;;9.50;7.90;;;;;;;;;;4953298;28;20474;-93
2022/01/08 14:09:18;;;;;;;9.73;7.75;;;;;;;;;;4951690;28;20423;-93
2022/01/08 14:11:46;;;;;;;8.90;8.00;;;;;;;;;;4950454;29;20799;-92
2022/01/08 14:14:18;;;;;;;9.05;8.15;;;;;;;;;;4952437;28;20408;-93
2022/01/08 14:16:47;;;;;;;10.02;8.32;;;;;;;;;;4952092;28;20976;-92
2022/01/08 14:19:17;;;;;;;9.82;8.38;;;;;;;;;;4952417;28;20506;-92
2022/01/08 14:21:54;;;;;;;10.25;8.10;;;;;;;;;;4950059;28;20441;-93
2022/01/08 14:24:23;;;;;;;10.68;8.52;;;;;;;;;;4950066;28;20427;-93
2022/01/08 14:27:01;;;;;;;9.20;8.00;;;;;;;;;;4951537;29;20416;-92
2022/01/08 14:29:31;;;;;;;11.35;8.55;;;;;;;;;;4949640;29;20475;-93
2022/01/08 14:32:00;;;;;;;10.80;8.90;;;;;;;;;;4949921;29;20427;-93
2022/01/08 14:34:27;;;;;;;10.70;9.25;;;;;;;;;;4951904;28;20417;-92
2022/01/08 14:36:57;;;;;;;11.02;9.30;;;;;;;;;;4951028;28;20416;-93
2022/01/08 14:39:46;;;;;;;11.20;9.25;;;;;;;;;;4949875;28;20471;-92
2022/01/08 14:42:14;;;;;;;10.93;9.10;;;;;;;;;;4949079;28;20498;-92
2022/01/08 14:44:53;;;;;;;13.13;9.88;;;;;;;;;;4951495;28;20417;-92
2022/01/08 14:47:38;;;;;;;12.93;10.32;;;;;;;;;;4951414;29;20491;-92
2022/01/08 14:50:08;;;;;;;10.67;9.40;;;;;;;;;;4951969;28;20514;-92